createdAt,value
2023-05-25T00:01:02.453Z,49.00
2023-05-25T00:03:31.365Z,49.33
2023-05-25T00:05:58.729Z,49.20
2023-05-25T00:08:25.255Z,44.47
2023-05-25T00:10:51.837Z,55.83
2023-05-25T00:13:18.343Z,55.07
2023-05-25T00:15:45.066Z,54.90
2023-05-25T00:18:11.785Z,52.73
2023-05-25T00:20:39.397Z,49.23
2023-05-25T00:23:06.224Z,52.13
2023-05-25T00:25:33.010Z,53.87
2023-05-25T00:27:59.687Z,52.03
2023-05-25T00:30:26.243Z,47.37
2023-05-25T00:32:54.057Z,63.37
2023-05-25T00:35:20.675Z,56.17
2023-05-25T00:37:47.644Z,56.17
2023-05-25T00:40:16.382Z,62.87
2023-05-25T00:42:43.791Z,60.30
2023-05-25T00:45:10.966Z,62.97
2023-05-25T00:47:37.496Z,64.63
2023-05-25T00:50:08.563Z,62.77
2023-05-25T00:52:35.351Z,67.97
2023-05-25T00:55:02.885Z,66.30
2023-05-25T00:57:34.217Z,72.00
2023-05-25T01:00:02.500Z,69.70
2023-05-25T01:02:29.595Z,75.53
2023-05-25T01:04:59.825Z,76.87
2023-05-25T01:07:27.106Z,77.60
2023-05-25T01:10:06.793Z,82.10
2023-05-25T01:12:37.459Z,79.97
2023-05-25T01:15:05.404Z,82.33
2023-05-25T01:17:32.308Z,97.37
2023-05-25T01:20:09.556Z,99.40
2023-05-25T01:22:49.074Z,109.00
2023-05-25T01:25:23.173Z,103.23
2023-05-25T01:27:59.303Z,107.50
2023-05-25T01:30:27.157Z,105.43
2023-05-25T01:32:55.115Z,102.17
2023-05-25T01:35:22.345Z,109.17
2023-05-25T01:37:50.044Z,100.93
2023-05-25T01:40:16.552Z,104.23
2023-05-25T01:42:43.201Z,95.87
2023-05-25T01:45:11.636Z,102.63
2023-05-25T01:47:46.880Z,93.40
2023-05-25T01:50:27.271Z,90.20
2023-05-25T01:53:00.448Z,94.73
2023-05-25T01:55:29.254Z,91.30
2023-05-25T01:57:58.003Z,88.23
2023-05-25T02:00:31.462Z,87.67
2023-05-25T02:02:58.350Z,80.87
2023-05-25T02:05:26.531Z,85.90
2023-05-25T02:07:53.060Z,93.80
2023-05-25T02:10:20.087Z,89.63
2023-05-25T02:12:46.712Z,90.07
2023-05-25T02:15:13.258Z,81.60
2023-05-25T02:17:39.936Z,75.17
2023-05-25T02:20:08.280Z,91.77
2023-05-25T02:22:35.118Z,74.67
2023-05-25T02:25:01.681Z,76.30
2023-05-25T02:27:28.245Z,73.67
2023-05-25T02:29:54.817Z,74.73
2023-05-25T02:32:21.367Z,72.37
2023-05-25T02:34:48.191Z,75.17
2023-05-25T02:37:14.701Z,77.00
2023-05-25T02:39:41.331Z,77.27
2023-05-25T02:42:07.888Z,74.33
2023-05-25T02:44:34.380Z,76.63
2023-05-25T02:47:01.195Z,69.37
2023-05-25T02:49:27.790Z,78.60
2023-05-25T02:51:54.391Z,68.97
2023-05-25T02:54:20.936Z,69.07
2023-05-25T02:56:47.492Z,68.87
2023-05-25T02:59:14.054Z,72.23
2023-05-25T03:01:40.749Z,75.70
2023-05-25T03:04:07.315Z,71.30
2023-05-25T03:06:36.456Z,76.03
2023-05-25T03:09:05.119Z,76.70
2023-05-25T03:11:31.644Z,80.27
2023-05-25T03:13:58.215Z,80.70
2023-05-25T03:16:25.964Z,78.57
2023-05-25T03:18:52.868Z,82.13
2023-05-25T03:21:19.445Z,81.40
2023-05-25T03:23:45.950Z,71.03
2023-05-25T03:26:12.502Z,79.30
2023-05-25T03:28:39.040Z,76.33
2023-05-25T03:31:05.776Z,75.87
2023-05-25T03:33:33.313Z,73.90
2023-05-25T03:35:59.952Z,78.93
2023-05-25T03:38:26.605Z,76.13
2023-05-25T03:40:53.177Z,78.50
2023-05-25T03:43:19.886Z,71.90
2023-05-25T03:45:46.922Z,72.80
2023-05-25T03:48:13.704Z,68.83
2023-05-25T03:50:41.039Z,75.17
2023-05-25T03:53:07.704Z,71.80
2023-05-25T03:55:34.283Z,66.23
2023-05-25T03:58:01.094Z,69.53
2023-05-25T04:00:27.883Z,69.30
2023-05-25T04:02:54.599Z,70.13
2023-05-25T04:05:21.273Z,62.40
2023-05-25T04:07:48.028Z,64.33
2023-05-25T04:10:14.633Z,65.03
2023-05-25T04:12:41.245Z,67.40
2023-05-25T04:15:09.467Z,62.80
2023-05-25T04:17:38.996Z,61.03
2023-05-25T04:20:08.712Z,67.40
2023-05-25T04:22:38.861Z,61.33
2023-05-25T04:25:06.877Z,63.20
2023-05-25T04:27:33.504Z,65.60
2023-05-25T04:30:00.930Z,62.83
2023-05-25T04:32:29.884Z,63.13
2023-05-25T04:34:56.604Z,62.93
2023-05-25T04:37:27.263Z,60.87
2023-05-25T04:39:53.988Z,63.57
2023-05-25T04:42:23.931Z,59.00
2023-05-25T04:44:55.777Z,66.90
2023-05-25T04:47:22.777Z,56.30
2023-05-25T04:49:49.488Z,59.37
2023-05-25T04:52:16.139Z,59.27
2023-05-25T04:54:43.513Z,63.43
2023-05-25T04:57:10.086Z,63.43
2023-05-25T04:59:36.638Z,63.60
2023-05-25T05:02:03.136Z,61.57
2023-05-25T05:04:30.379Z,58.97
2023-05-25T05:06:58.823Z,63.73
2023-05-25T05:09:25.645Z,59.30
2023-05-25T05:11:52.216Z,54.37
2023-05-25T05:14:18.766Z,58.50
2023-05-25T05:16:45.381Z,66.03
2023-05-25T05:19:12.131Z,62.27
2023-05-25T05:21:39.162Z,57.53
2023-05-25T05:24:05.797Z,60.57
2023-05-25T05:26:44.231Z,54.53
2023-05-25T05:29:19.858Z,55.93
2023-05-25T05:31:46.505Z,58.33
2023-05-25T05:34:13.048Z,69.73
2023-05-25T05:36:55.806Z,63.90
2023-05-25T05:39:24.343Z,62.40
2023-05-25T05:41:50.861Z,58.30
2023-05-25T05:44:17.381Z,56.20
2023-05-25T05:46:44.036Z,54.77
2023-05-25T05:49:10.744Z,54.77
2023-05-25T05:51:37.270Z,58.90
2023-05-25T05:54:04.729Z,57.60
2023-05-25T05:56:31.384Z,63.80
2023-05-25T05:58:57.991Z,61.33
2023-05-25T06:01:25.420Z,60.50
2023-05-25T06:03:54.348Z,56.77
2023-05-25T06:06:21.650Z,57.33
2023-05-25T06:08:48.347Z,62.33
2023-05-25T06:11:14.901Z,49.00
2023-05-25T06:13:41.556Z,51.37
2023-05-25T06:16:08.264Z,52.20
2023-05-25T06:18:34.926Z,55.53
2023-05-25T06:21:02.169Z,59.53
2023-05-25T06:23:28.708Z,54.20
2023-05-25T06:25:55.569Z,53.40
2023-05-25T06:28:22.115Z,50.80
2023-05-25T06:30:48.827Z,48.80
2023-05-25T06:33:15.493Z,52.67
2023-05-25T06:35:42.484Z,49.63
2023-05-25T06:38:09.252Z,52.57
2023-05-25T06:40:35.821Z,51.30
2023-05-25T06:43:02.450Z,50.70
2023-05-25T06:45:28.982Z,53.33
2023-05-25T06:47:55.610Z,51.33
2023-05-25T06:50:22.349Z,50.60
2023-05-25T06:52:48.952Z,43.97
2023-05-25T06:55:15.630Z,49.20
2023-05-25T06:57:43.643Z,47.23
2023-05-25T07:00:14.032Z,50.43
2023-05-25T07:02:40.657Z,54.93
2023-05-25T07:05:07.490Z,53.43
2023-05-25T07:07:34.099Z,55.80
2023-05-25T07:10:02.987Z,52.43
2023-05-25T07:12:29.584Z,50.53
2023-05-25T07:14:57.750Z,54.33
2023-05-25T07:17:24.443Z,47.07
2023-05-25T07:19:51.013Z,49.33
2023-05-25T07:22:19.034Z,48.30
2023-05-25T07:24:46.343Z,45.90
2023-05-25T07:27:14.157Z,54.40
2023-05-25T07:29:40.935Z,47.43
2023-05-25T07:32:07.599Z,55.23
2023-05-25T07:34:36.974Z,45.80
2023-05-25T07:37:03.784Z,49.83
2023-05-25T07:39:30.441Z,49.77
2023-05-25T07:41:56.930Z,48.63
2023-05-25T07:44:23.438Z,45.97
2023-05-25T07:46:50.013Z,48.73
2023-05-25T07:49:16.663Z,43.30
2023-05-25T07:51:44.840Z,48.27
2023-05-25T07:54:11.754Z,41.20
2023-05-25T07:56:39.027Z,47.70
2023-05-25T07:59:06.184Z,42.60
2023-05-25T08:01:32.738Z,39.97
2023-05-25T08:03:59.436Z,43.60
2023-05-25T08:06:26.161Z,38.67
2023-05-25T08:08:52.808Z,40.13
2023-05-25T08:11:23.544Z,38.10
2023-05-25T08:13:50.208Z,44.73
2023-05-25T08:16:18.833Z,40.00
2023-05-25T08:18:46.827Z,40.50
2023-05-25T08:21:14.015Z,37.30
2023-05-25T08:23:42.447Z,35.93
2023-05-25T08:26:25.956Z,39.37
2023-05-25T08:28:56.831Z,39.00
2023-05-25T08:31:23.484Z,40.00
2023-05-25T08:33:50.092Z,34.97
2023-05-25T08:36:16.729Z,42.00
2023-05-25T08:38:43.360Z,34.50
2023-05-25T08:41:10.850Z,33.80
2023-05-25T08:43:37.571Z,33.57
2023-05-25T08:46:06.491Z,35.77
2023-05-25T08:48:41.841Z,29.60
2023-05-25T08:51:12.060Z,30.87
2023-05-25T08:53:40.885Z,38.60
2023-05-25T08:56:12.285Z,36.83
2023-05-25T08:58:46.912Z,31.87
2023-05-25T09:01:15.844Z,35.20
2023-05-25T09:03:44.042Z,33.77
2023-05-25T09:06:11.389Z,32.53
2023-05-25T09:08:39.711Z,32.07
2023-05-25T09:11:07.763Z,38.27
2023-05-25T09:13:35.598Z,35.47
2023-05-25T09:16:02.473Z,34.60
2023-05-25T09:18:29.257Z,38.83
2023-05-25T09:20:56.588Z,38.67
2023-05-25T09:23:23.890Z,33.10
2023-05-25T09:25:51.127Z,32.50
2023-05-25T09:30:51.005Z,32.67
2023-05-25T09:33:18.088Z,32.97
2023-05-25T09:35:46.559Z,30.70
2023-05-25T09:38:15.611Z,33.03
2023-05-25T09:40:42.881Z,30.60
2023-05-25T09:43:09.859Z,31.97
2023-05-25T09:45:38.361Z,34.73
2023-05-25T09:48:06.195Z,33.40
2023-05-25T09:50:32.842Z,31.83
2023-05-25T09:53:00.442Z,29.43
2023-05-25T09:55:36.894Z,32.67
2023-05-25T09:58:07.264Z,30.57
2023-05-25T10:00:33.911Z,36.67
2023-05-25T10:03:00.815Z,34.90
2023-05-25T10:05:27.437Z,31.27
2023-05-25T10:07:54.509Z,37.17
2023-05-25T10:10:21.372Z,32.07
2023-05-25T10:12:51.612Z,32.97
2023-05-25T10:15:20.746Z,32.60
2023-05-25T10:17:53.136Z,31.17
2023-05-25T10:20:21.781Z,28.57
2023-05-25T10:22:54.312Z,32.53
2023-05-25T10:25:27.959Z,39.60
2023-05-25T10:28:03.192Z,37.63
2023-05-25T10:30:30.349Z,27.97
2023-05-25T10:32:57.443Z,36.47
2023-05-25T10:35:24.642Z,36.73
2023-05-25T10:37:52.386Z,34.47
2023-05-25T10:40:25.181Z,29.87
2023-05-25T10:42:51.900Z,32.17
2023-05-25T10:45:19.085Z,29.00
2023-05-25T10:47:51.048Z,27.67
2023-05-25T10:50:26.856Z,29.27
2023-05-25T10:53:22.504Z,28.23
2023-05-25T10:55:55.105Z,27.90
2023-05-25T10:58:23.129Z,29.40
2023-05-25T11:01:03.740Z,30.33
2023-05-25T11:03:58.419Z,28.53
2023-05-25T11:06:48.439Z,27.67
2023-05-25T11:09:28.439Z,37.70
2023-05-25T11:12:02.838Z,25.80
2023-05-25T11:14:30.943Z,27.03
2023-05-25T11:17:20.843Z,22.87
2023-05-25T11:19:55.011Z,24.37
2023-05-25T11:22:23.322Z,22.40
2023-05-25T11:24:53.625Z,19.43
2023-05-25T11:27:24.129Z,19.97
2023-05-25T11:29:51.703Z,20.23
2023-05-25T11:32:18.572Z,25.30
2023-05-25T11:34:48.352Z,22.37
2023-05-25T11:37:21.625Z,20.80
2023-05-25T11:39:49.253Z,26.80
2023-05-25T11:42:17.057Z,16.90
2023-05-25T11:44:43.886Z,19.97
2023-05-25T11:47:14.562Z,21.43
2023-05-25T11:49:42.377Z,22.53
2023-05-25T11:52:09.292Z,21.47
2023-05-25T11:54:36.309Z,19.03
2023-05-25T11:57:03.181Z,17.07
2023-05-25T11:59:32.367Z,21.10
2023-05-25T12:02:01.077Z,20.53
2023-05-25T12:04:28.910Z,18.37
2023-05-25T12:07:06.555Z,16.63
2023-05-25T12:09:33.858Z,20.63
2023-05-25T12:12:02.552Z,17.50
2023-05-25T12:14:29.115Z,18.20
2023-05-25T12:16:56.069Z,19.77
2023-05-25T12:19:22.759Z,18.83
2023-05-25T12:21:51.368Z,18.77
2023-05-25T12:24:18.141Z,15.57
2023-05-25T12:26:51.569Z,19.63
2023-05-25T12:29:18.184Z,17.13
2023-05-25T12:31:44.901Z,18.00
2023-05-25T12:34:15.857Z,14.60
2023-05-25T12:36:45.563Z,16.00
2023-05-25T12:39:14.378Z,14.73
2023-05-25T12:41:44.730Z,13.50
2023-05-25T12:44:24.435Z,14.67
2023-05-25T12:46:55.651Z,15.53
2023-05-25T12:49:29.671Z,18.60
2023-05-25T12:51:56.789Z,13.70
2023-05-25T12:54:42.154Z,15.70
2023-05-25T12:57:10.522Z,16.73
2023-05-25T12:59:37.849Z,16.47
2023-05-25T13:02:08.327Z,13.13
2023-05-25T13:04:36.165Z,17.20
2023-05-25T13:07:03.544Z,15.80
2023-05-25T13:09:30.805Z,15.40
2023-05-25T13:11:58.152Z,15.05
2023-05-25T13:14:25.338Z,18.10
2023-05-25T13:16:53.550Z,13.65
2023-05-25T13:19:21.299Z,13.68
2023-05-25T13:21:49.409Z,17.03
2023-05-25T13:24:16.645Z,11.90
2023-05-25T13:26:45.179Z,16.77
2023-05-25T13:29:12.657Z,14.63
2023-05-25T13:31:39.450Z,14.13
2023-05-25T13:34:06.046Z,12.93
2023-05-25T13:36:34.615Z,10.25
2023-05-25T13:39:02.266Z,14.10
2023-05-25T13:41:28.807Z,12.13
2023-05-25T13:43:55.502Z,12.17
2023-05-25T13:46:34.039Z,12.70
2023-05-25T13:49:02.635Z,16.10
2023-05-25T13:51:29.308Z,14.60
2023-05-25T13:53:55.833Z,13.17
2023-05-25T13:56:23.216Z,13.27
2023-05-25T13:58:49.925Z,19.87
2023-05-25T14:01:16.558Z,14.43
2023-05-25T14:03:43.567Z,18.93
2023-05-25T14:06:10.328Z,19.47
2023-05-25T14:08:36.906Z,18.85
2023-05-25T14:11:03.567Z,16.40
2023-05-25T14:13:30.201Z,15.05
2023-05-25T14:15:57.102Z,12.07
2023-05-25T14:18:23.731Z,17.63
2023-05-25T14:20:50.491Z,18.13
2023-05-25T14:23:19.148Z,14.70
2023-05-25T14:25:47.025Z,19.40
2023-05-25T14:28:14.066Z,12.97
2023-05-25T14:30:41.555Z,16.15
2023-05-25T14:33:08.196Z,12.50
2023-05-25T14:35:34.757Z,18.60
2023-05-25T14:38:01.363Z,14.43
2023-05-25T14:40:27.876Z,12.33
2023-05-25T14:42:55.531Z,19.63
2023-05-25T14:45:22.372Z,15.25
2023-05-25T14:47:49.687Z,16.13
2023-05-25T14:50:17.241Z,14.90
2023-05-25T14:52:43.810Z,14.35
2023-05-25T14:55:10.707Z,12.77
2023-05-25T14:57:37.254Z,10.80
2023-05-25T15:00:04.436Z,14.13
2023-05-25T15:02:31.216Z,16.75
2023-05-25T15:04:58.614Z,15.47
2023-05-25T15:07:25.311Z,12.35
2023-05-25T15:09:51.901Z,11.03
2023-05-25T15:12:18.592Z,17.47
2023-05-25T15:14:45.076Z,14.10
2023-05-25T15:17:11.752Z,13.05
2023-05-25T15:19:38.331Z,17.38
2023-05-25T15:22:04.931Z,18.77
2023-05-25T15:24:31.554Z,17.45
2023-05-25T15:26:58.163Z,16.80
2023-05-25T15:29:24.828Z,15.43
2023-05-25T15:31:52.730Z,14.67
2023-05-25T15:34:20.203Z,15.00
2023-05-25T15:36:46.797Z,16.38
2023-05-25T15:39:14.654Z,14.20
2023-05-25T15:41:41.605Z,13.83
2023-05-25T15:44:12.372Z,15.20
2023-05-25T15:46:40.165Z,18.43
2023-05-25T15:49:11.380Z,15.77
2023-05-25T15:51:41.528Z,18.30
2023-05-25T15:54:11.104Z,18.30
2023-05-25T15:56:39.573Z,12.50
2023-05-25T15:59:06.246Z,15.17
2023-05-25T16:01:34.437Z,16.40
2023-05-25T16:04:01.526Z,15.03
2023-05-25T16:06:28.242Z,14.40
2023-05-25T16:08:57.043Z,11.03
2023-05-25T16:11:24.065Z,13.73
2023-05-25T16:13:50.668Z,10.17
2023-05-25T16:16:19.093Z,14.83
2023-05-25T16:18:46.266Z,10.40
2023-05-25T16:21:13.191Z,14.03
2023-05-25T16:23:42.322Z,12.00
2023-05-25T16:26:10.202Z,18.55
2023-05-25T16:28:37.654Z,15.53
2023-05-25T16:31:07.377Z,18.07
2023-05-25T16:33:35.023Z,14.27
2023-05-25T16:36:01.606Z,16.73
2023-05-25T16:38:28.217Z,13.00
2023-05-25T16:40:54.792Z,12.40
2023-05-25T16:43:23.336Z,16.40
2023-05-25T16:45:49.902Z,19.37
2023-05-25T16:48:16.522Z,11.13
2023-05-25T16:50:43.080Z,13.97
2023-05-25T16:53:09.743Z,11.90
2023-05-25T16:55:36.556Z,20.63
2023-05-25T16:58:03.150Z,20.50
2023-05-25T17:00:29.698Z,15.33
2023-05-25T17:02:56.376Z,15.10
2023-05-25T17:05:22.948Z,12.40
2023-05-25T17:07:49.511Z,10.77
2023-05-25T17:10:16.081Z,20.77
2023-05-25T17:12:42.701Z,13.23
2023-05-25T17:15:11.175Z,14.33
2023-05-25T17:17:37.781Z,12.63
2023-05-25T17:20:05.098Z,10.67
2023-05-25T17:22:31.714Z,15.27
2023-05-25T17:24:58.318Z,14.67
2023-05-25T17:27:24.881Z,15.60
2023-05-25T17:29:51.481Z,15.47
2023-05-25T17:32:18.006Z,14.50
2023-05-25T17:34:44.540Z,16.70
2023-05-25T17:37:11.319Z,16.77
2023-05-25T17:39:37.960Z,12.17
2023-05-25T17:42:04.789Z,11.53
2023-05-25T17:44:31.436Z,14.67
2023-05-25T17:46:57.995Z,15.47
2023-05-25T17:49:24.493Z,12.13
2023-05-25T17:51:51.302Z,11.53
2023-05-25T17:54:19.943Z,17.17
2023-05-25T17:56:46.665Z,18.47
2023-05-25T17:59:13.256Z,13.00
2023-05-25T18:01:40.836Z,15.83
2023-05-25T18:04:07.587Z,13.30
2023-05-25T18:06:34.496Z,11.47
2023-05-25T18:09:01.073Z,15.60
2023-05-25T18:11:29.251Z,17.70
2023-05-25T18:13:55.902Z,19.77
2023-05-25T18:16:22.548Z,15.33
2023-05-25T18:18:49.117Z,16.73
2023-05-25T18:21:15.701Z,18.37
2023-05-25T18:23:42.358Z,14.97
2023-05-25T18:26:08.938Z,18.17
2023-05-25T18:28:35.627Z,17.23
2023-05-25T18:31:02.195Z,18.73
2023-05-25T18:33:28.935Z,13.13
2023-05-25T18:35:55.585Z,13.33
2023-05-25T18:38:22.106Z,11.37
2023-05-25T18:40:48.629Z,13.07
2023-05-25T18:43:15.236Z,15.23
2023-05-25T18:45:41.734Z,16.23
2023-05-25T18:48:08.350Z,16.90
2023-05-25T18:50:35.532Z,14.53
2023-05-25T18:53:02.563Z,17.63
2023-05-25T18:55:29.491Z,14.90
2023-05-25T18:57:56.780Z,14.60
2023-05-25T19:00:23.421Z,17.43
2023-05-25T19:02:50.089Z,14.67
2023-05-25T19:05:16.827Z,15.10
2023-05-25T19:07:58.404Z,14.83
2023-05-25T19:10:27.444Z,18.47
2023-05-25T19:12:54.030Z,23.40
2023-05-25T19:15:20.719Z,16.60
2023-05-25T19:17:47.425Z,18.67
2023-05-25T19:20:14.168Z,19.30
2023-05-25T19:22:41.763Z,19.57
2023-05-25T19:25:08.598Z,19.33
2023-05-25T19:27:35.112Z,15.60
2023-05-25T19:30:01.708Z,12.00
2023-05-25T19:32:28.279Z,15.77
2023-05-25T19:34:54.946Z,19.57
2023-05-25T19:37:21.533Z,19.80
2023-05-25T19:39:48.067Z,15.77
2023-05-25T19:42:14.720Z,18.70
2023-05-25T19:44:41.625Z,16.63
2023-05-25T19:47:08.148Z,14.37
2023-05-25T19:49:34.867Z,19.00
2023-05-25T19:52:01.420Z,17.03
2023-05-25T19:54:27.962Z,15.73
2023-05-25T19:56:54.773Z,17.37
2023-05-25T19:59:21.874Z,14.63
2023-05-25T20:01:48.611Z,16.90
2023-05-25T20:04:15.601Z,25.60
2023-05-25T20:06:42.156Z,15.70
2023-05-25T20:09:12.463Z,16.03
2023-05-25T20:11:39.091Z,21.83
2023-05-25T20:14:07.496Z,18.57
2023-05-25T20:16:34.405Z,16.10
2023-05-25T20:19:01.887Z,14.77
2023-05-25T20:21:28.902Z,18.13
2023-05-25T20:23:57.040Z,15.73
2023-05-25T20:26:23.536Z,14.47
2023-05-25T20:28:50.100Z,14.77
2023-05-25T20:31:16.617Z,12.90
2023-05-25T20:33:43.242Z,14.77
2023-05-25T20:36:09.941Z,13.40
2023-05-25T20:38:36.406Z,14.87
2023-05-25T20:41:02.926Z,18.43
2023-05-25T20:43:29.427Z,18.20
2023-05-25T20:45:56.406Z,16.77
2023-05-25T20:48:23.015Z,13.73
2023-05-25T20:50:49.491Z,23.17
2023-05-25T20:53:16.155Z,18.57
2023-05-25T20:55:42.850Z,17.23
2023-05-25T20:58:09.884Z,16.70
2023-05-25T21:00:36.726Z,17.90
2023-05-25T21:03:04.882Z,24.00
2023-05-25T21:05:31.684Z,16.63
2023-05-25T21:07:58.181Z,19.00
2023-05-25T21:10:24.862Z,24.03
2023-05-25T21:12:51.591Z,23.53
2023-05-25T21:15:18.191Z,22.30
2023-05-25T21:17:44.802Z,20.33
2023-05-25T21:20:11.562Z,19.80
2023-05-25T21:22:38.555Z,21.10
2023-05-25T21:25:06.466Z,21.37
2023-05-25T21:27:33.001Z,21.17
2023-05-25T21:29:59.523Z,21.13
2023-05-25T21:32:26.172Z,19.07
2023-05-25T21:34:52.925Z,24.90
2023-05-25T21:37:19.582Z,21.00
2023-05-25T21:39:46.276Z,16.27
2023-05-25T21:42:12.783Z,15.93
2023-05-25T21:44:39.415Z,15.83
2023-05-25T21:47:06.074Z,18.33
2023-05-25T21:49:33.373Z,14.70
2023-05-25T21:52:00.144Z,19.50
2023-05-25T21:54:26.733Z,16.93
2023-05-25T21:56:53.933Z,16.30
2023-05-25T21:59:20.544Z,17.80
2023-05-25T22:01:47.066Z,18.73
2023-05-25T22:04:13.690Z,16.57
2023-05-25T22:06:40.282Z,15.30
2023-05-25T22:09:06.867Z,19.10
2023-05-25T22:11:34.028Z,20.77
2023-05-25T22:14:02.945Z,17.57
2023-05-25T22:16:29.502Z,18.30
2023-05-25T22:18:56.146Z,15.40
2023-05-25T22:21:22.643Z,20.70
2023-05-25T22:23:49.135Z,18.20
2023-05-25T22:26:15.662Z,21.27
2023-05-25T22:28:42.150Z,17.20
2023-05-25T22:31:09.006Z,17.70
2023-05-25T22:33:35.550Z,17.83
2023-05-25T22:36:02.073Z,17.47
2023-05-25T22:38:28.929Z,15.10
2023-05-25T22:40:55.439Z,17.30
2023-05-25T22:43:21.971Z,15.13
2023-05-25T22:45:48.561Z,19.20
2023-05-25T22:48:15.039Z,21.13
2023-05-25T22:50:41.697Z,19.47
2023-05-25T22:53:08.335Z,16.87
2023-05-25T22:55:34.835Z,16.70
2023-05-25T22:58:01.465Z,17.17
2023-05-25T23:00:27.963Z,16.10
2023-05-25T23:02:54.502Z,17.37
2023-05-25T23:05:21.171Z,15.27
2023-05-25T23:07:47.705Z,15.87
2023-05-25T23:10:14.244Z,16.30
2023-05-25T23:12:40.727Z,11.07
2023-05-25T23:15:08.156Z,14.00
2023-05-25T23:17:34.764Z,12.93
2023-05-25T23:20:02.044Z,11.87
2023-05-25T23:22:28.708Z,12.87
2023-05-25T23:24:55.281Z,10.60
2023-05-25T23:27:21.887Z,12.03
2023-05-25T23:29:48.432Z,12.67
2023-05-25T23:32:14.946Z,11.93
2023-05-25T23:34:41.687Z,9.97
2023-05-25T23:37:08.426Z,12.10
2023-05-25T23:39:35.030Z,12.23
2023-05-25T23:42:02.258Z,10.17
2023-05-25T23:44:28.904Z,11.80
2023-05-25T23:46:55.526Z,10.50
2023-05-25T23:49:22.054Z,12.70
2023-05-25T23:51:48.563Z,11.17
2023-05-25T23:54:15.205Z,12.20
2023-05-25T23:56:41.697Z,16.60
2023-05-25T23:59:08.401Z,11.77
